Etihad Airways Virtual Airport Information Service

Tokyo Narita International Airport

ICAO: RJAA Country: Japan
Latitude: 35.7647 Longitude: 140.386
Latest Arrival : ETD878 (OMAA-RJAA) Latest Departure : ETD871 (RJAA-OMAA)


WX CaptureLIVE
Data provided by noaa.gov | Recorded at 22:19:31

METAR : RJAA 182200Z 03012KT 9999 FEW010 SCT015 BKN030 22/20 Q1011 TEMPO 02020G30KT RMK 1CU010 3CU015 7CU030 A2987

TAF : RJAA 182100Z 1821/2000 02016KT 9999 FEW008 BKN015 TEMPO 1821/1906 02020G30KT


Runway Data for RJAA
Data provided by openaviationdata.com

Runway ID Mag Var Hdg Length Elevation Surface ILS Freq ILS Id ILS Slope

Tokyo Narita International Airport, Japan
Use only for reference purposes